createdAt,value
2019-03-08T00:01:17.335Z,9.76
2019-03-08T00:03:47.194Z,9.89
2019-03-08T00:06:16.927Z,9.88
2019-03-08T00:08:46.966Z,9.85
2019-03-08T00:11:16.810Z,9.83
2019-03-08T00:13:46.466Z,9.83
2019-03-08T00:16:16.238Z,9.85
2019-03-08T00:18:46.002Z,9.92
2019-03-08T00:21:15.784Z,9.85
2019-03-08T00:23:45.611Z,9.86
2019-03-08T00:26:15.429Z,10.00
2019-03-08T00:28:45.081Z,9.89
2019-03-08T00:31:14.840Z,9.94
2019-03-08T00:33:44.526Z,9.89
2019-03-08T00:36:14.528Z,9.88
2019-03-08T00:38:44.182Z,9.94
2019-03-08T00:41:13.990Z,9.95
2019-03-08T00:43:43.731Z,9.93
2019-03-08T00:46:13.445Z,9.86
2019-03-08T00:48:43.299Z,9.87
2019-03-08T00:51:13.027Z,9.85
2019-03-08T00:53:42.838Z,9.78
2019-03-08T00:56:12.634Z,9.78
2019-03-08T00:58:42.365Z,9.71
2019-03-08T01:01:12.201Z,9.64
2019-03-08T01:03:42.066Z,9.63
2019-03-08T01:06:12.033Z,9.62
2019-03-08T01:08:41.731Z,9.54
2019-03-08T01:11:11.543Z,9.54
2019-03-08T01:13:41.306Z,9.45
2019-03-08T01:16:11.494Z,9.38
2019-03-08T01:18:41.284Z,9.37
2019-03-08T01:21:11.061Z,9.33
2019-03-08T01:23:40.863Z,9.29
2019-03-08T01:26:10.787Z,9.27
2019-03-08T01:28:40.472Z,9.21
2019-03-08T01:31:10.193Z,9.21
2019-03-08T01:33:39.883Z,9.25
2019-03-08T01:36:09.524Z,9.19
2019-03-08T01:38:39.357Z,9.18
2019-03-08T01:41:09.078Z,9.19
2019-03-08T01:43:39.023Z,9.14
2019-03-08T01:46:08.723Z,9.12
2019-03-08T01:48:38.471Z,9.18
2019-03-08T01:51:08.231Z,9.22
2019-03-08T01:53:38.002Z,9.13
2019-03-08T01:56:07.702Z,9.16
2019-03-08T01:58:37.412Z,9.11
2019-03-08T02:01:07.133Z,9.13
2019-03-08T02:03:36.907Z,9.09
2019-03-08T02:06:06.684Z,9.08
2019-03-08T02:08:36.381Z,9.07
2019-03-08T02:11:06.388Z,9.09
2019-03-08T02:13:36.027Z,9.12
2019-03-08T02:16:05.781Z,9.13
2019-03-08T02:18:35.428Z,9.09
2019-03-08T02:21:07.001Z,9.10
2019-03-08T02:23:36.731Z,8.98
2019-03-08T02:26:06.440Z,8.96
2019-03-08T02:28:36.227Z,8.89
2019-03-08T02:31:06.175Z,8.81
2019-03-08T02:33:35.907Z,8.73
2019-03-08T02:36:06.129Z,8.67
2019-03-08T02:38:35.808Z,8.64
2019-03-08T02:41:05.655Z,8.65
2019-03-08T02:43:35.461Z,8.70
2019-03-08T02:46:05.508Z,8.52
2019-03-08T02:48:35.188Z,8.57
2019-03-08T02:51:05.053Z,8.52
2019-03-08T02:53:34.734Z,8.50
2019-03-08T02:56:04.471Z,8.48
2019-03-08T02:58:34.237Z,8.45
2019-03-08T03:01:04.024Z,8.48
2019-03-08T03:03:34.173Z,8.41
2019-03-08T03:06:03.901Z,8.43
2019-03-08T03:08:33.600Z,8.35
2019-03-08T03:11:03.360Z,8.38
2019-03-08T03:13:33.110Z,8.39
2019-03-08T03:16:02.916Z,8.27
2019-03-08T03:18:32.767Z,8.27
2019-03-08T03:21:02.515Z,8.27
2019-03-08T03:23:32.175Z,8.32
2019-03-08T03:26:01.845Z,8.34
2019-03-08T03:28:31.588Z,8.32
2019-03-08T03:31:01.335Z,8.35
2019-03-08T03:33:31.122Z,8.30
2019-03-08T03:36:00.847Z,8.35
2019-03-08T03:38:30.508Z,8.38
2019-03-08T03:41:00.355Z,8.38
2019-03-08T03:43:30.322Z,8.48
2019-03-08T03:46:00.097Z,8.38
2019-03-08T03:48:29.767Z,8.45
2019-03-08T03:50:59.453Z,8.40
2019-03-08T03:53:29.197Z,8.39
2019-03-08T03:55:59.154Z,8.41
2019-03-08T03:58:28.850Z,8.37
2019-03-08T04:00:58.543Z,8.45
2019-03-08T04:03:28.279Z,8.40
2019-03-08T04:05:58.037Z,8.41
2019-03-08T04:08:27.775Z,8.44
2019-03-08T04:10:57.831Z,8.38
2019-03-08T04:13:27.529Z,8.45
2019-03-08T04:15:57.263Z,8.31
2019-03-08T04:18:27.012Z,8.35
2019-03-08T04:20:56.663Z,8.34
2019-03-08T04:23:26.443Z,8.34
2019-03-08T04:25:56.485Z,8.32
2019-03-08T04:28:26.219Z,8.39
2019-03-08T04:30:56.023Z,8.37
2019-03-08T04:33:25.799Z,8.25
2019-03-08T04:35:55.546Z,8.34
2019-03-08T04:38:25.319Z,8.35
2019-03-08T04:40:55.117Z,8.41
2019-03-08T04:43:24.822Z,8.37
2019-03-08T04:45:54.526Z,8.32
2019-03-08T04:48:24.193Z,8.40
2019-03-08T04:50:53.821Z,8.32
2019-03-08T04:53:23.518Z,8.29
2019-03-08T04:55:53.299Z,8.25
2019-03-08T04:58:23.026Z,8.21
2019-03-08T05:00:52.731Z,8.23
2019-03-08T05:03:22.623Z,8.26
2019-03-08T05:05:52.504Z,8.30
2019-03-08T05:08:22.218Z,8.24
2019-03-08T05:10:51.906Z,8.15
2019-03-08T05:13:21.726Z,8.25
2019-03-08T05:15:51.533Z,8.21
2019-03-08T05:18:21.184Z,8.06
2019-03-08T05:20:50.865Z,8.15
2019-03-08T05:23:20.597Z,8.01
2019-03-08T05:25:50.426Z,8.00
2019-03-08T05:28:20.157Z,7.95
2019-03-08T05:30:49.959Z,7.94
2019-03-08T05:33:19.881Z,8.05
2019-03-08T05:35:49.585Z,8.09
2019-03-08T05:38:19.268Z,8.05
2019-03-08T05:40:49.069Z,8.14
2019-03-08T05:43:18.867Z,8.14
2019-03-08T05:45:48.958Z,8.07
2019-03-08T05:48:18.673Z,8.02
2019-03-08T05:50:48.407Z,8.07
2019-03-08T05:53:18.266Z,7.91
2019-03-08T05:55:47.909Z,7.97
2019-03-08T05:58:17.682Z,7.94
2019-03-08T06:00:47.562Z,7.93
2019-03-08T06:03:17.448Z,7.95
2019-03-08T06:05:48.130Z,7.99
2019-03-08T06:08:17.801Z,7.99
2019-03-08T06:10:47.536Z,7.99
2019-03-08T06:13:17.390Z,7.96
2019-03-08T06:15:48.211Z,8.11
2019-03-08T06:18:17.898Z,8.00
2019-03-08T06:20:49.138Z,8.17
2019-03-08T06:23:18.856Z,8.17
2019-03-08T06:25:48.637Z,8.14
2019-03-08T06:28:18.588Z,8.10
2019-03-08T06:30:48.255Z,8.17
2019-03-08T06:33:17.993Z,8.17
2019-03-08T06:35:47.871Z,8.17
2019-03-08T06:38:17.753Z,8.24
2019-03-08T06:40:47.457Z,8.28
2019-03-08T06:43:17.103Z,8.25
2019-03-08T06:45:46.791Z,8.22
2019-03-08T06:48:16.501Z,8.28
2019-03-08T06:50:46.210Z,8.31
2019-03-08T06:53:16.003Z,8.31
2019-03-08T06:55:46.182Z,8.27
2019-03-08T06:58:17.617Z,8.30
2019-03-08T07:00:47.129Z,8.36
2019-03-08T07:03:16.805Z,8.50
2019-03-08T07:05:46.556Z,8.46
2019-03-08T07:08:16.251Z,8.46
2019-03-08T07:10:46.085Z,8.48
2019-03-08T07:13:15.876Z,8.53
2019-03-08T07:15:45.605Z,8.57
2019-03-08T07:18:15.313Z,8.59
2019-03-08T07:20:52.286Z,8.61
2019-03-08T07:23:31.026Z,8.49
2019-03-08T07:26:02.317Z,8.58
2019-03-08T07:28:34.465Z,8.65
2019-03-08T07:31:10.111Z,8.66
2019-03-08T07:33:53.225Z,8.70
2019-03-08T07:36:25.156Z,8.76
2019-03-08T07:38:54.630Z,8.66
2019-03-08T07:41:34.916Z,8.65
2019-03-08T07:44:07.513Z,8.64
2019-03-08T07:46:55.072Z,8.70
2019-03-08T07:49:29.299Z,8.74
2019-03-08T07:52:07.371Z,8.93
2019-03-08T07:54:41.485Z,9.09
2019-03-08T07:57:27.891Z,9.22
2019-03-08T08:00:02.420Z,9.27
2019-03-08T08:02:34.548Z,9.25
2019-03-08T08:05:07.683Z,9.35
2019-03-08T08:07:41.774Z,9.53
2019-03-08T08:10:22.929Z,9.52
2019-03-08T08:12:54.316Z,9.58
2019-03-08T08:15:34.433Z,9.39
2019-03-08T08:18:08.153Z,9.46
2019-03-08T08:20:48.239Z,9.38
2019-03-08T08:23:19.732Z,9.37
2019-03-08T08:26:06.207Z,9.40
2019-03-08T08:28:49.461Z,9.50
2019-03-08T08:31:19.416Z,9.61
2019-03-08T08:33:53.802Z,9.76
2019-03-08T08:36:29.552Z,9.88
2019-03-08T08:39:04.202Z,9.97
2019-03-08T08:41:38.223Z,10.12
2019-03-08T08:44:09.713Z,10.30
2019-03-08T08:46:57.255Z,10.33
2019-03-08T08:49:28.663Z,10.24
2019-03-08T08:52:13.169Z,10.33
2019-03-08T08:54:47.165Z,10.28
2019-03-08T08:57:28.561Z,10.33
2019-03-08T08:59:59.984Z,10.30
2019-03-08T09:02:47.233Z,10.36
2019-03-08T09:05:21.777Z,10.40
2019-03-08T09:07:53.376Z,10.25
2019-03-08T09:10:34.462Z,10.36
2019-03-08T09:13:08.544Z,10.39
2019-03-08T09:15:55.023Z,10.13
2019-03-08T09:18:41.276Z,9.98
2019-03-08T09:21:28.967Z,10.01
2019-03-08T09:24:06.145Z,10.13
2019-03-08T09:26:41.906Z,10.10
2019-03-08T09:29:29.699Z,10.17
2019-03-08T09:32:01.209Z,10.32
2019-03-08T09:34:32.564Z,10.24
2019-03-08T09:37:05.389Z,10.20
2019-03-08T09:39:52.540Z,10.10
2019-03-08T09:42:40.193Z,10.04
2019-03-08T09:45:13.968Z,10.20
2019-03-08T09:47:49.318Z,10.50
2019-03-08T09:50:20.700Z,10.46
2019-03-08T09:53:00.753Z,10.53
2019-03-08T09:55:41.747Z,10.53
2019-03-08T09:58:20.384Z,10.72
2019-03-08T10:01:16.179Z,10.97
2019-03-08T10:03:50.036Z,11.10
2019-03-08T10:06:21.337Z,11.27
2019-03-08T10:08:52.766Z,11.19
2019-03-08T10:11:26.750Z,10.88
2019-03-08T10:14:03.523Z,10.84
2019-03-08T10:16:37.351Z,10.85
2019-03-08T10:19:24.597Z,10.77
2019-03-08T10:22:04.646Z,10.79
2019-03-08T10:24:36.202Z,10.60
2019-03-08T10:27:19.336Z,10.53
2019-03-08T10:29:54.520Z,10.51
2019-03-08T10:32:27.123Z,10.27
2019-03-08T10:35:23.433Z,9.50
2019-03-08T10:37:48.164Z,9.05
2019-03-08T10:40:19.937Z,9.15
2019-03-08T10:42:53.747Z,9.14
2019-03-08T10:45:40.942Z,9.31
2019-03-08T10:48:15.072Z,9.45
2019-03-08T10:50:58.795Z,9.58
2019-03-08T10:53:30.106Z,9.82
2019-03-08T10:56:14.056Z,9.99
2019-03-08T10:58:57.323Z,10.23
2019-03-08T11:01:26.940Z,10.32
2019-03-08T11:03:56.387Z,10.44
2019-03-08T11:06:30.574Z,10.48
2019-03-08T11:09:13.746Z,10.67
2019-03-08T11:11:55.393Z,10.82
2019-03-08T11:14:26.755Z,10.90
2019-03-08T11:17:03.545Z,10.84
2019-03-08T11:19:50.673Z,10.71
2019-03-08T11:22:30.956Z,10.65
2019-03-08T11:25:14.288Z,10.68
2019-03-08T11:28:01.624Z,10.81
2019-03-08T11:30:38.866Z,10.92
2019-03-08T11:33:26.893Z,10.82
2019-03-08T11:35:58.290Z,10.98
2019-03-08T11:38:29.646Z,10.95
2019-03-08T11:41:07.771Z,10.86
2019-03-08T11:43:37.284Z,10.71
2019-03-08T11:46:26.930Z,10.60
2019-03-08T11:49:01.149Z,10.55
2019-03-08T11:51:35.187Z,10.57
2019-03-08T11:54:13.863Z,10.66
2019-03-08T11:56:55.919Z,10.79
2019-03-08T11:59:26.507Z,11.00
2019-03-08T12:01:56.014Z,11.15
2019-03-08T12:04:40.789Z,11.22
2019-03-08T12:07:28.763Z,11.33
2019-03-08T12:10:06.295Z,11.28
2019-03-08T12:12:37.680Z,11.43
2019-03-08T12:15:27.570Z,11.79
2019-03-08T12:17:58.952Z,11.97
2019-03-08T12:20:46.667Z,12.22
2019-03-08T12:23:23.733Z,12.27
2019-03-08T12:26:07.468Z,12.31
2019-03-08T12:28:55.188Z,12.46
2019-03-08T12:31:33.885Z,12.59
2019-03-08T12:34:08.484Z,12.61
2019-03-08T12:36:48.936Z,12.51
2019-03-08T12:39:38.954Z,12.45
2019-03-08T12:42:26.056Z,12.50
2019-03-08T12:45:05.870Z,12.39
2019-03-08T12:47:35.483Z,12.27
2019-03-08T12:50:15.552Z,12.15
2019-03-08T12:53:02.866Z,11.98
2019-03-08T12:55:34.258Z,11.72
2019-03-08T12:58:19.029Z,11.56
2019-03-08T13:00:56.378Z,11.33
2019-03-08T13:03:36.560Z,11.51
2019-03-08T13:06:06.145Z,11.78
2019-03-08T13:08:35.751Z,11.91
2019-03-08T13:11:05.560Z,11.94
2019-03-08T13:13:35.277Z,11.66
2019-03-08T13:16:05.703Z,11.92
2019-03-08T13:18:35.505Z,11.71
2019-03-08T13:21:05.629Z,11.67
2019-03-08T13:23:35.511Z,11.80
2019-03-08T13:26:05.508Z,11.79
2019-03-08T13:28:35.196Z,11.89
2019-03-08T13:31:05.686Z,11.92
2019-03-08T13:33:35.467Z,11.88
2019-03-08T13:36:05.625Z,11.89
2019-03-08T13:38:35.582Z,11.81
2019-03-08T13:41:05.417Z,11.73
2019-03-08T13:43:35.137Z,11.82
2019-03-08T13:46:04.944Z,11.92
2019-03-08T13:48:34.717Z,12.01
2019-03-08T13:51:04.617Z,12.17
2019-03-08T13:53:34.302Z,12.11
2019-03-08T13:56:04.296Z,12.25
2019-03-08T13:58:34.018Z,12.28
2019-03-08T14:01:03.706Z,12.67
2019-03-08T14:03:33.610Z,12.76
2019-03-08T14:06:03.400Z,13.19
2019-03-08T14:08:33.212Z,13.59
2019-03-08T14:11:03.348Z,13.60
2019-03-08T14:13:33.074Z,13.90
2019-03-08T14:16:02.902Z,13.87
2019-03-08T14:18:32.569Z,13.54
2019-03-08T14:21:02.274Z,13.21
2019-03-08T14:23:32.056Z,12.82
2019-03-08T14:26:02.057Z,12.61
2019-03-08T14:28:31.785Z,12.43
2019-03-08T14:31:03.167Z,12.33
2019-03-08T14:33:34.395Z,12.43
2019-03-08T14:36:06.095Z,12.52
2019-03-08T14:38:39.416Z,12.40
2019-03-08T14:41:16.531Z,12.36
2019-03-08T14:43:53.942Z,12.23
2019-03-08T14:46:31.573Z,12.16
2019-03-08T14:49:01.385Z,12.12
2019-03-08T14:51:31.075Z,12.30
2019-03-08T14:54:00.784Z,12.73
2019-03-08T14:56:31.964Z,12.91
2019-03-08T14:59:02.036Z,12.96
2019-03-08T15:01:31.760Z,12.93
2019-03-08T15:04:01.514Z,12.76
2019-03-08T15:06:31.328Z,12.41
2019-03-08T15:09:01.331Z,12.32
2019-03-08T15:11:31.064Z,12.16
2019-03-08T15:14:00.790Z,12.11
2019-03-08T15:16:30.518Z,12.01
2019-03-08T15:19:03.789Z,11.96
2019-03-08T15:21:33.199Z,11.81
2019-03-08T15:24:03.543Z,11.80
2019-03-08T15:26:33.236Z,11.78
2019-03-08T15:29:03.081Z,11.83
2019-03-08T15:31:32.757Z,11.85
2019-03-08T15:34:02.628Z,11.78
2019-03-08T15:36:32.380Z,11.76
2019-03-08T15:39:02.394Z,11.61
2019-03-08T15:41:32.251Z,11.53
2019-03-08T15:44:02.128Z,11.59
2019-03-08T15:46:31.915Z,11.52
2019-03-08T15:49:02.065Z,11.50
2019-03-08T15:51:31.957Z,11.37
2019-03-08T15:54:01.891Z,11.40
2019-03-08T15:56:31.807Z,11.27
2019-03-08T15:59:03.325Z,11.20
2019-03-08T16:01:33.052Z,11.24
2019-03-08T16:04:02.801Z,11.17
2019-03-08T16:06:32.532Z,11.17
2019-03-08T16:09:02.234Z,11.17
2019-03-08T16:11:32.023Z,11.06
2019-03-08T16:14:08.511Z,11.10
2019-03-08T16:16:33.366Z,11.10
2019-03-08T16:19:03.084Z,11.04
2019-03-08T16:21:32.837Z,11.08
2019-03-08T16:24:02.869Z,11.06
2019-03-08T16:26:32.607Z,11.11
2019-03-08T16:29:02.541Z,11.08
2019-03-08T16:31:34.067Z,11.15
2019-03-08T16:34:11.558Z,11.11
2019-03-08T16:36:42.722Z,11.06
2019-03-08T16:39:19.735Z,11.07
2019-03-08T16:42:09.319Z,11.14
2019-03-08T16:44:40.318Z,11.14
2019-03-08T16:47:17.010Z,11.10
2019-03-08T16:49:51.290Z,11.08
2019-03-08T16:52:23.402Z,11.07
2019-03-08T16:54:54.490Z,11.00
2019-03-08T16:57:37.821Z,11.03
2019-03-08T17:00:09.550Z,11.09
2019-03-08T17:02:46.725Z,11.00
2019-03-08T17:05:33.507Z,10.98
2019-03-08T17:08:04.920Z,10.95
2019-03-08T17:10:41.787Z,10.98
2019-03-08T17:13:25.016Z,10.93
2019-03-08T17:15:54.518Z,10.85
2019-03-08T17:18:24.485Z,10.89
2019-03-08T17:21:09.157Z,10.87
2019-03-08T17:23:56.543Z,11.07
2019-03-08T17:26:29.113Z,11.06
2019-03-08T17:29:00.471Z,10.96
2019-03-08T17:31:31.843Z,10.95
2019-03-08T17:34:05.917Z,10.91
2019-03-08T17:36:44.115Z,10.90
2019-03-08T17:39:15.622Z,10.93
2019-03-08T17:41:45.131Z,10.91
2019-03-08T17:44:14.587Z,10.88
2019-03-08T17:46:49.013Z,10.93
2019-03-08T17:49:35.444Z,10.86
2019-03-08T17:52:06.826Z,10.89
2019-03-08T17:54:54.897Z,10.85
2019-03-08T17:57:41.257Z,10.97
2019-03-08T18:00:25.771Z,10.98
2019-03-08T18:03:02.518Z,10.84
2019-03-08T18:05:42.979Z,10.75
2019-03-08T18:08:17.626Z,10.73
2019-03-08T18:11:05.194Z,10.64
2019-03-08T18:13:46.735Z,10.62
2019-03-08T18:16:32.882Z,10.61
2019-03-08T18:19:20.218Z,10.61
2019-03-08T18:22:08.415Z,10.60
2019-03-08T18:24:42.907Z,10.49
2019-03-08T18:27:26.307Z,10.51
2019-03-08T18:30:09.823Z,10.51
2019-03-08T18:32:56.032Z,10.47
2019-03-08T18:35:27.697Z,10.51
2019-03-08T18:38:15.147Z,10.44
2019-03-08T18:41:02.955Z,10.36
2019-03-08T18:43:40.318Z,10.42
2019-03-08T18:46:20.697Z,10.28
2019-03-08T18:48:50.376Z,10.25
2019-03-08T18:51:19.797Z,10.21
2019-03-08T18:54:07.435Z,10.27
2019-03-08T18:56:50.860Z,10.26
2019-03-08T18:59:27.927Z,10.22
2019-03-08T19:02:15.684Z,10.20
2019-03-08T19:04:48.068Z,10.13
2019-03-08T19:07:21.864Z,10.14
2019-03-08T19:09:53.551Z,10.18
2019-03-08T19:12:39.684Z,10.11
2019-03-08T19:15:20.463Z,10.08
2019-03-08T19:17:54.905Z,10.10
2019-03-08T19:20:42.401Z,10.11
2019-03-08T19:23:13.933Z,10.11
2019-03-08T19:25:54.568Z,10.08
2019-03-08T19:28:26.896Z,10.06
2019-03-08T19:31:13.718Z,10.12
2019-03-08T19:33:43.348Z,10.09
2019-03-08T19:36:30.791Z,10.11
2019-03-08T19:39:00.270Z,10.14
2019-03-08T19:41:34.529Z,10.10
2019-03-08T19:44:17.903Z,10.13
2019-03-08T19:46:54.671Z,10.21
2019-03-08T19:49:44.259Z,10.12
2019-03-08T19:52:24.758Z,10.04
2019-03-08T19:54:56.222Z,10.08
2019-03-08T19:57:28.458Z,10.13
2019-03-08T20:00:16.226Z,10.09
2019-03-08T20:02:47.603Z,10.08
2019-03-08T20:05:34.164Z,10.09
2019-03-08T20:08:09.856Z,10.16
2019-03-08T20:10:39.434Z,10.07
2019-03-08T20:13:13.284Z,10.12
2019-03-08T20:15:44.630Z,10.11
2019-03-08T20:18:24.728Z,10.12
2019-03-08T20:20:58.950Z,10.18
2019-03-08T20:23:33.038Z,10.13
2019-03-08T20:26:04.450Z,10.09
2019-03-08T20:28:36.185Z,10.18
2019-03-08T20:31:10.258Z,10.15
2019-03-08T20:33:54.441Z,10.10
2019-03-08T20:36:31.730Z,10.20
2019-03-08T20:39:10.230Z,10.14
2019-03-08T20:41:44.691Z,10.15
2019-03-08T20:44:19.362Z,10.17
2019-03-08T20:46:59.940Z,10.19
2019-03-08T20:49:29.993Z,10.17
2019-03-08T20:52:00.589Z,10.12
2019-03-08T20:54:30.274Z,10.17
2019-03-08T20:57:00.126Z,10.17
2019-03-08T20:59:30.026Z,10.17
2019-03-08T21:02:00.011Z,10.25
2019-03-08T21:04:29.768Z,10.29
2019-03-08T21:06:59.460Z,10.18
2019-03-08T21:09:29.194Z,10.07
2019-03-08T21:11:58.953Z,10.20
2019-03-08T21:14:28.656Z,10.16
2019-03-08T21:16:58.330Z,10.07
2019-03-08T21:19:28.712Z,10.02
2019-03-08T21:21:58.352Z,10.04
2019-03-08T21:24:28.068Z,10.08
2019-03-08T21:26:57.756Z,10.04
2019-03-08T21:29:27.511Z,10.10
2019-03-08T21:31:57.268Z,10.08
2019-03-08T21:34:27.107Z,10.10
2019-03-08T21:36:56.814Z,10.03
2019-03-08T21:39:26.659Z,10.07
2019-03-08T21:41:56.375Z,10.03
2019-03-08T21:44:26.175Z,10.07
2019-03-08T21:46:55.839Z,10.08
2019-03-08T21:49:25.542Z,10.13
2019-03-08T21:51:55.304Z,10.15
2019-03-08T21:54:25.199Z,10.09
2019-03-08T21:56:55.008Z,10.10
2019-03-08T21:59:24.780Z,10.13
2019-03-08T22:01:54.421Z,10.12
2019-03-08T22:04:30.313Z,10.14
2019-03-08T22:06:59.848Z,10.09
2019-03-08T22:09:36.984Z,10.14
2019-03-08T22:12:06.668Z,10.19
2019-03-08T22:14:36.413Z,10.22
2019-03-08T22:17:06.492Z,10.09
2019-03-08T22:19:36.287Z,10.14
2019-03-08T22:22:06.146Z,10.18
2019-03-08T22:24:36.677Z,10.29
2019-03-08T22:27:06.576Z,10.26
2019-03-08T22:29:36.354Z,10.41
2019-03-08T22:32:06.051Z,10.30
2019-03-08T22:34:35.829Z,10.24
2019-03-08T22:37:05.627Z,10.29
2019-03-08T22:39:35.420Z,10.18
2019-03-08T22:42:05.302Z,10.10
2019-03-08T22:44:34.979Z,10.06
2019-03-08T22:47:06.011Z,10.10
2019-03-08T22:49:35.676Z,10.13
2019-03-08T22:52:05.487Z,10.15
2019-03-08T22:54:35.202Z,10.14
2019-03-08T22:57:04.895Z,10.15
2019-03-08T22:59:34.631Z,10.12
2019-03-08T23:02:08.401Z,10.09
2019-03-08T23:04:38.218Z,10.07
2019-03-08T23:07:07.971Z,10.04
2019-03-08T23:09:38.028Z,10.03
2019-03-08T23:12:07.852Z,10.07
2019-03-08T23:14:37.615Z,10.05
2019-03-08T23:17:07.492Z,9.99
2019-03-08T23:19:37.249Z,9.97
2019-03-08T23:22:07.459Z,9.97
2019-03-08T23:24:37.502Z,9.96
2019-03-08T23:27:23.979Z,9.97
2019-03-08T23:29:55.290Z,9.90
2019-03-08T23:32:26.710Z,9.95
2019-03-08T23:34:56.636Z,9.97
2019-03-08T23:37:26.352Z,9.98
2019-03-08T23:39:56.037Z,9.90
2019-03-08T23:42:25.723Z,10.06
2019-03-08T23:44:55.653Z,10.06
2019-03-08T23:47:25.292Z,9.96
2019-03-08T23:49:54.984Z,9.98
2019-03-08T23:52:24.689Z,10.00
2019-03-08T23:54:54.464Z,10.04
2019-03-08T23:57:24.384Z,9.95
2019-03-08T23:59:54.162Z,9.97
